sensor_id;sensor_type;location;lat;lon;timestamp;P1;durP1;ratioP1;P2;durP2;ratioP2
9106;SDS011;4589;48.690;8.952;2023-08-30T00:02:19;22.60;;;17.90;;
9106;SDS011;4589;48.690;8.952;2023-08-30T00:04:44;24.03;;;17.60;;
9106;SDS011;4589;48.690;8.952;2023-08-30T00:07:10;19.87;;;17.70;;
9106;SDS011;4589;48.690;8.952;2023-08-30T00:09:36;23.53;;;18.60;;
9106;SDS011;4589;48.690;8.952;2023-08-30T00:12:02;24.53;;;19.43;;
9106;SDS011;4589;48.690;8.952;2023-08-30T00:14:28;22.73;;;17.77;;
9106;SDS011;4589;48.690;8.952;2023-08-30T00:16:54;25.80;;;18.50;;
9106;SDS011;4589;48.690;8.952;2023-08-30T00:19:19;24.23;;;18.43;;
9106;SDS011;4589;48.690;8.952;2023-08-30T00:21:45;23.47;;;18.97;;
9106;SDS011;4589;48.690;8.952;2023-08-30T00:24:11;24.20;;;19.70;;
9106;SDS011;4589;48.690;8.952;2023-08-30T00:26:37;23.60;;;18.50;;
9106;SDS011;4589;48.690;8.952;2023-08-30T00:29:03;23.60;;;19.77;;
9106;SDS011;4589;48.690;8.952;2023-08-30T00:31:29;26.17;;;20.40;;
9106;SDS011;4589;48.690;8.952;2023-08-30T00:33:55;25.70;;;19.37;;
9106;SDS011;4589;48.690;8.952;2023-08-30T00:36:20;25.47;;;19.97;;
9106;SDS011;4589;48.690;8.952;2023-08-30T00:38:47;26.97;;;19.43;;
9106;SDS011;4589;48.690;8.952;2023-08-30T00:41:12;29.17;;;20.30;;
9106;SDS011;4589;48.690;8.952;2023-08-30T00:43:38;23.00;;;19.63;;
9106;SDS011;4589;48.690;8.952;2023-08-30T00:46:04;28.03;;;21.37;;
9106;SDS011;4589;48.690;8.952;2023-08-30T00:48:30;27.53;;;20.60;;
9106;SDS011;4589;48.690;8.952;2023-08-30T00:50:56;23.60;;;19.17;;
9106;SDS011;4589;48.690;8.952;2023-08-30T00:53:22;27.10;;;20.77;;
9106;SDS011;4589;48.690;8.952;2023-08-30T00:55:48;30.80;;;21.40;;
9106;SDS011;4589;48.690;8.952;2023-08-30T00:58:14;24.73;;;19.73;;
9106;SDS011;4589;48.690;8.952;2023-08-30T01:00:40;26.63;;;20.00;;
9106;SDS011;4589;48.690;8.952;2023-08-30T01:03:06;26.67;;;19.73;;
9106;SDS011;4589;48.690;8.952;2023-08-30T01:05:35;24.87;;;20.20;;
9106;SDS011;4589;48.690;8.952;2023-08-30T01:08:01;29.23;;;21.10;;
9106;SDS011;4589;48.690;8.952;2023-08-30T01:13:27;28.00;;;21.10;;
9106;SDS011;4589;48.690;8.952;2023-08-30T01:15:57;24.90;;;19.43;;
9106;SDS011;4589;48.690;8.952;2023-08-30T01:18:26;25.90;;;20.83;;
9106;SDS011;4589;48.690;8.952;2023-08-30T01:20:53;28.47;;;19.27;;
9106;SDS011;4589;48.690;8.952;2023-08-30T01:23:24;28.73;;;20.07;;
9106;SDS011;4589;48.690;8.952;2023-08-30T01:29:15;32.43;;;19.37;;
9106;SDS011;4589;48.690;8.952;2023-08-30T01:31:43;21.93;;;18.37;;
9106;SDS011;4589;48.690;8.952;2023-08-30T01:34:12;27.10;;;20.43;;
9106;SDS011;4589;48.690;8.952;2023-08-30T01:36:40;27.67;;;20.53;;
9106;SDS011;4589;48.690;8.952;2023-08-30T01:39:07;29.83;;;21.73;;
9106;SDS011;4589;48.690;8.952;2023-08-30T01:41:35;34.23;;;22.67;;
9106;SDS011;4589;48.690;8.952;2023-08-30T01:44:02;38.23;;;23.73;;
9106;SDS011;4589;48.690;8.952;2023-08-30T01:46:30;35.87;;;22.00;;
9106;SDS011;4589;48.690;8.952;2023-08-30T01:48:58;35.60;;;23.43;;
9106;SDS011;4589;48.690;8.952;2023-08-30T01:51:25;34.10;;;24.33;;
9106;SDS011;4589;48.690;8.952;2023-08-30T01:53:51;32.63;;;23.83;;
9106;SDS011;4589;48.690;8.952;2023-08-30T01:56:18;40.03;;;25.00;;
9106;SDS011;4589;48.690;8.952;2023-08-30T01:58:43;37.50;;;24.07;;
9106;SDS011;4589;48.690;8.952;2023-08-30T02:01:10;39.33;;;24.57;;
9106;SDS011;4589;48.690;8.952;2023-08-30T02:03:35;44.23;;;25.00;;
9106;SDS011;4589;48.690;8.952;2023-08-30T02:06:08;41.90;;;27.43;;
9106;SDS011;4589;48.690;8.952;2023-08-30T02:11:15;47.63;;;29.83;;
9106;SDS011;4589;48.690;8.952;2023-08-30T02:13:44;38.83;;;26.23;;
9106;SDS011;4589;48.690;8.952;2023-08-30T02:16:11;43.87;;;27.43;;
9106;SDS011;4589;48.690;8.952;2023-08-30T02:18:38;40.50;;;25.57;;
9106;SDS011;4589;48.690;8.952;2023-08-30T02:21:05;45.53;;;27.70;;
9106;SDS011;4589;48.690;8.952;2023-08-30T02:23:31;41.00;;;27.40;;
9106;SDS011;4589;48.690;8.952;2023-08-30T02:25:57;38.57;;;26.17;;
9106;SDS011;4589;48.690;8.952;2023-08-30T02:28:22;50.17;;;25.87;;
9106;SDS011;4589;48.690;8.952;2023-08-30T02:30:50;46.17;;;27.50;;
9106;SDS011;4589;48.690;8.952;2023-08-30T02:33:17;50.33;;;27.47;;
9106;SDS011;4589;48.690;8.952;2023-08-30T02:35:43;56.63;;;28.37;;
9106;SDS011;4589;48.690;8.952;2023-08-30T02:38:09;42.77;;;26.63;;
9106;SDS011;4589;48.690;8.952;2023-08-30T02:40:35;52.63;;;29.10;;
9106;SDS011;4589;48.690;8.952;2023-08-30T02:43:01;48.30;;;26.40;;
9106;SDS011;4589;48.690;8.952;2023-08-30T02:45:26;48.93;;;28.00;;
9106;SDS011;4589;48.690;8.952;2023-08-30T02:47:54;42.80;;;26.33;;
9106;SDS011;4589;48.690;8.952;2023-08-30T02:50:21;74.90;;;28.77;;
9106;SDS011;4589;48.690;8.952;2023-08-30T02:52:46;91.97;;;30.20;;
9106;SDS011;4589;48.690;8.952;2023-08-30T02:55:12;117.77;;;31.50;;
9106;SDS011;4589;48.690;8.952;2023-08-30T02:57:38;73.17;;;29.93;;
9106;SDS011;4589;48.690;8.952;2023-08-30T03:00:04;78.20;;;32.00;;
9106;SDS011;4589;48.690;8.952;2023-08-30T03:02:31;56.90;;;28.63;;
9106;SDS011;4589;48.690;8.952;2023-08-30T03:04:58;92.67;;;30.20;;
9106;SDS011;4589;48.690;8.952;2023-08-30T03:07:24;115.13;;;32.67;;
9106;SDS011;4589;48.690;8.952;2023-08-30T03:09:53;105.83;;;32.70;;
9106;SDS011;4589;48.690;8.952;2023-08-30T03:12:19;123.27;;;32.70;;
9106;SDS011;4589;48.690;8.952;2023-08-30T03:14:45;155.70;;;31.80;;
9106;SDS011;4589;48.690;8.952;2023-08-30T03:17:11;109.63;;;32.13;;
9106;SDS011;4589;48.690;8.952;2023-08-30T03:19:36;72.23;;;29.27;;
9106;SDS011;4589;48.690;8.952;2023-08-30T03:22:02;88.00;;;33.47;;
9106;SDS011;4589;48.690;8.952;2023-08-30T03:24:28;67.47;;;27.60;;
9106;SDS011;4589;48.690;8.952;2023-08-30T03:26:54;52.90;;;27.83;;
9106;SDS011;4589;48.690;8.952;2023-08-30T03:29:20;57.17;;;27.93;;
9106;SDS011;4589;48.690;8.952;2023-08-30T03:31:46;57.00;;;27.50;;
9106;SDS011;4589;48.690;8.952;2023-08-30T03:34:12;59.37;;;27.57;;
9106;SDS011;4589;48.690;8.952;2023-08-30T03:36:37;48.67;;;26.50;;
9106;SDS011;4589;48.690;8.952;2023-08-30T03:39:04;57.17;;;29.20;;
9106;SDS011;4589;48.690;8.952;2023-08-30T03:41:30;44.47;;;24.83;;
9106;SDS011;4589;48.690;8.952;2023-08-30T03:43:56;50.33;;;27.00;;
9106;SDS011;4589;48.690;8.952;2023-08-30T03:46:22;57.50;;;26.93;;
9106;SDS011;4589;48.690;8.952;2023-08-30T03:48:48;44.17;;;26.80;;
9106;SDS011;4589;48.690;8.952;2023-08-30T03:51:14;49.87;;;27.00;;
9106;SDS011;4589;48.690;8.952;2023-08-30T03:53:40;47.43;;;26.30;;
9106;SDS011;4589;48.690;8.952;2023-08-30T03:56:05;47.93;;;26.97;;
9106;SDS011;4589;48.690;8.952;2023-08-30T03:58:32;49.07;;;26.30;;
9106;SDS011;4589;48.690;8.952;2023-08-30T04:00:58;48.00;;;27.07;;
9106;SDS011;4589;48.690;8.952;2023-08-30T04:03:24;49.97;;;25.60;;
9106;SDS011;4589;48.690;8.952;2023-08-30T04:05:54;48.90;;;27.40;;
9106;SDS011;4589;48.690;8.952;2023-08-30T04:08:21;42.40;;;24.30;;
9106;SDS011;4589;48.690;8.952;2023-08-30T04:10:47;44.27;;;25.43;;
9106;SDS011;4589;48.690;8.952;2023-08-30T04:13:14;50.80;;;27.20;;
9106;SDS011;4589;48.690;8.952;2023-08-30T04:15:40;45.93;;;26.17;;
9106;SDS011;4589;48.690;8.952;2023-08-30T04:18:06;41.20;;;24.33;;
9106;SDS011;4589;48.690;8.952;2023-08-30T04:20:32;44.00;;;23.93;;
9106;SDS011;4589;48.690;8.952;2023-08-30T04:22:58;42.60;;;25.03;;
9106;SDS011;4589;48.690;8.952;2023-08-30T04:25:26;39.90;;;24.37;;
9106;SDS011;4589;48.690;8.952;2023-08-30T04:27:53;49.87;;;26.20;;
9106;SDS011;4589;48.690;8.952;2023-08-30T04:30:18;44.93;;;24.80;;
9106;SDS011;4589;48.690;8.952;2023-08-30T04:32:44;41.03;;;25.20;;
9106;SDS011;4589;48.690;8.952;2023-08-30T04:35:10;47.00;;;25.70;;
9106;SDS011;4589;48.690;8.952;2023-08-30T04:37:36;44.17;;;25.03;;
9106;SDS011;4589;48.690;8.952;2023-08-30T04:40:03;47.20;;;23.93;;
9106;SDS011;4589;48.690;8.952;2023-08-30T04:42:30;46.87;;;23.97;;
9106;SDS011;4589;48.690;8.952;2023-08-30T04:44:56;43.93;;;25.90;;
9106;SDS011;4589;48.690;8.952;2023-08-30T04:47:25;43.83;;;26.07;;
9106;SDS011;4589;48.690;8.952;2023-08-30T04:49:51;40.73;;;22.90;;
9106;SDS011;4589;48.690;8.952;2023-08-30T04:52:17;43.83;;;23.80;;
9106;SDS011;4589;48.690;8.952;2023-08-30T04:54:43;54.30;;;25.30;;
9106;SDS011;4589;48.690;8.952;2023-08-30T04:57:10;50.60;;;26.13;;
9106;SDS011;4589;48.690;8.952;2023-08-30T04:59:39;44.67;;;25.47;;
9106;SDS011;4589;48.690;8.952;2023-08-30T05:02:05;40.33;;;25.40;;
9106;SDS011;4589;48.690;8.952;2023-08-30T05:04:31;47.80;;;26.30;;
9106;SDS011;4589;48.690;8.952;2023-08-30T05:06:57;47.53;;;24.87;;
9106;SDS011;4589;48.690;8.952;2023-08-30T05:09:22;49.37;;;26.00;;
9106;SDS011;4589;48.690;8.952;2023-08-30T05:11:50;49.50;;;24.30;;
9106;SDS011;4589;48.690;8.952;2023-08-30T05:14:16;44.17;;;24.77;;
9106;SDS011;4589;48.690;8.952;2023-08-30T05:16:42;56.13;;;25.13;;
9106;SDS011;4589;48.690;8.952;2023-08-30T05:19:08;38.60;;;23.33;;
9106;SDS011;4589;48.690;8.952;2023-08-30T05:21:34;46.27;;;25.27;;
9106;SDS011;4589;48.690;8.952;2023-08-30T05:23:59;38.47;;;22.80;;
9106;SDS011;4589;48.690;8.952;2023-08-30T05:26:25;42.30;;;23.90;;
9106;SDS011;4589;48.690;8.952;2023-08-30T05:28:51;40.57;;;24.10;;
9106;SDS011;4589;48.690;8.952;2023-08-30T05:31:17;40.90;;;23.50;;
9106;SDS011;4589;48.690;8.952;2023-08-30T05:33:43;39.47;;;23.43;;
9106;SDS011;4589;48.690;8.952;2023-08-30T05:36:09;35.30;;;23.17;;
9106;SDS011;4589;48.690;8.952;2023-08-30T05:38:34;37.57;;;24.63;;
9106;SDS011;4589;48.690;8.952;2023-08-30T05:41:00;33.30;;;22.27;;
9106;SDS011;4589;48.690;8.952;2023-08-30T05:43:27;39.00;;;23.30;;
9106;SDS011;4589;48.690;8.952;2023-08-30T05:45:53;40.73;;;23.63;;
9106;SDS011;4589;48.690;8.952;2023-08-30T05:48:18;39.90;;;23.00;;
9106;SDS011;4589;48.690;8.952;2023-08-30T05:50:44;33.10;;;21.47;;
9106;SDS011;4589;48.690;8.952;2023-08-30T05:53:10;46.03;;;23.27;;
9106;SDS011;4589;48.690;8.952;2023-08-30T05:55:36;35.50;;;20.67;;
9106;SDS011;4589;48.690;8.952;2023-08-30T05:58:02;36.47;;;22.80;;
9106;SDS011;4589;48.690;8.952;2023-08-30T06:00:28;33.10;;;20.67;;
9106;SDS011;4589;48.690;8.952;2023-08-30T06:02:54;35.47;;;20.20;;
9106;SDS011;4589;48.690;8.952;2023-08-30T06:05:20;34.23;;;20.93;;
9106;SDS011;4589;48.690;8.952;2023-08-30T06:07:46;34.23;;;21.10;;
9106;SDS011;4589;48.690;8.952;2023-08-30T06:10:12;37.00;;;21.97;;
9106;SDS011;4589;48.690;8.952;2023-08-30T06:12:38;36.23;;;20.90;;
9106;SDS011;4589;48.690;8.952;2023-08-30T06:15:04;39.27;;;21.73;;
9106;SDS011;4589;48.690;8.952;2023-08-30T06:17:30;39.00;;;21.33;;
9106;SDS011;4589;48.690;8.952;2023-08-30T06:19:56;45.47;;;23.30;;
9106;SDS011;4589;48.690;8.952;2023-08-30T06:22:22;42.47;;;22.97;;
9106;SDS011;4589;48.690;8.952;2023-08-30T06:24:48;37.73;;;21.87;;
9106;SDS011;4589;48.690;8.952;2023-08-30T06:27:14;41.80;;;22.13;;
9106;SDS011;4589;48.690;8.952;2023-08-30T06:29:40;42.70;;;22.57;;
9106;SDS011;4589;48.690;8.952;2023-08-30T06:32:06;43.40;;;23.70;;
9106;SDS011;4589;48.690;8.952;2023-08-30T06:34:32;42.30;;;22.40;;
9106;SDS011;4589;48.690;8.952;2023-08-30T06:36:58;42.60;;;22.77;;
9106;SDS011;4589;48.690;8.952;2023-08-30T06:39:24;39.60;;;22.43;;
9106;SDS011;4589;48.690;8.952;2023-08-30T06:41:50;38.97;;;22.87;;
9106;SDS011;4589;48.690;8.952;2023-08-30T06:44:16;37.70;;;21.60;;
9106;SDS011;4589;48.690;8.952;2023-08-30T06:46:42;33.63;;;22.07;;
9106;SDS011;4589;48.690;8.952;2023-08-30T06:49:08;36.10;;;22.23;;
9106;SDS011;4589;48.690;8.952;2023-08-30T06:51:34;39.10;;;22.37;;
9106;SDS011;4589;48.690;8.952;2023-08-30T06:54:00;41.47;;;24.30;;
9106;SDS011;4589;48.690;8.952;2023-08-30T06:56:27;44.63;;;23.10;;
9106;SDS011;4589;48.690;8.952;2023-08-30T06:58:53;40.20;;;21.97;;
9106;SDS011;4589;48.690;8.952;2023-08-30T07:01:18;33.93;;;21.27;;
9106;SDS011;4589;48.690;8.952;2023-08-30T07:03:44;38.90;;;22.43;;
9106;SDS011;4589;48.690;8.952;2023-08-30T07:06:10;38.90;;;22.63;;
9106;SDS011;4589;48.690;8.952;2023-08-30T07:08:36;35.00;;;20.87;;
9106;SDS011;4589;48.690;8.952;2023-08-30T07:11:01;32.90;;;20.90;;
9106;SDS011;4589;48.690;8.952;2023-08-30T07:13:27;32.53;;;19.30;;
9106;SDS011;4589;48.690;8.952;2023-08-30T07:15:53;31.50;;;20.00;;
9106;SDS011;4589;48.690;8.952;2023-08-30T07:18:19;28.63;;;19.30;;
9106;SDS011;4589;48.690;8.952;2023-08-30T07:20:45;28.60;;;19.27;;
9106;SDS011;4589;48.690;8.952;2023-08-30T07:23:11;30.97;;;19.97;;
9106;SDS011;4589;48.690;8.952;2023-08-30T07:25:38;28.10;;;18.90;;
9106;SDS011;4589;48.690;8.952;2023-08-30T07:28:04;32.90;;;19.63;;
9106;SDS011;4589;48.690;8.952;2023-08-30T07:30:31;27.83;;;19.30;;
9106;SDS011;4589;48.690;8.952;2023-08-30T07:32:56;25.00;;;19.73;;
9106;SDS011;4589;48.690;8.952;2023-08-30T07:35:22;27.00;;;17.60;;
9106;SDS011;4589;48.690;8.952;2023-08-30T07:37:48;24.53;;;17.10;;
9106;SDS011;4589;48.690;8.952;2023-08-30T07:40:14;27.13;;;19.00;;
9106;SDS011;4589;48.690;8.952;2023-08-30T07:42:40;21.73;;;16.80;;
9106;SDS011;4589;48.690;8.952;2023-08-30T07:45:06;18.50;;;15.37;;
9106;SDS011;4589;48.690;8.952;2023-08-30T07:47:32;19.83;;;15.03;;
9106;SDS011;4589;48.690;8.952;2023-08-30T07:49:58;17.67;;;14.90;;
9106;SDS011;4589;48.690;8.952;2023-08-30T07:52:24;16.83;;;14.27;;
9106;SDS011;4589;48.690;8.952;2023-08-30T07:54:49;19.70;;;14.57;;
9106;SDS011;4589;48.690;8.952;2023-08-30T07:57:15;17.90;;;13.07;;
9106;SDS011;4589;48.690;8.952;2023-08-30T07:59:41;15.30;;;12.80;;
9106;SDS011;4589;48.690;8.952;2023-08-30T08:02:08;16.00;;;13.70;;
9106;SDS011;4589;48.690;8.952;2023-08-30T08:04:36;16.17;;;12.93;;
9106;SDS011;4589;48.690;8.952;2023-08-30T08:07:02;14.10;;;12.70;;
9106;SDS011;4589;48.690;8.952;2023-08-30T08:09:29;13.63;;;12.20;;
9106;SDS011;4589;48.690;8.952;2023-08-30T08:11:55;14.50;;;12.07;;
9106;SDS011;4589;48.690;8.952;2023-08-30T08:14:22;16.57;;;12.63;;
9106;SDS011;4589;48.690;8.952;2023-08-30T08:16:48;13.03;;;11.00;;
9106;SDS011;4589;48.690;8.952;2023-08-30T08:19:14;11.90;;;10.80;;
9106;SDS011;4589;48.690;8.952;2023-08-30T08:21:40;11.37;;;10.13;;
9106;SDS011;4589;48.690;8.952;2023-08-30T08:24:06;11.40;;;10.07;;
9106;SDS011;4589;48.690;8.952;2023-08-30T08:26:32;13.20;;;10.97;;
9106;SDS011;4589;48.690;8.952;2023-08-30T08:28:57;11.77;;;9.70;;
9106;SDS011;4589;48.690;8.952;2023-08-30T08:31:23;10.77;;;9.70;;
9106;SDS011;4589;48.690;8.952;2023-08-30T08:33:50;10.67;;;9.67;;
9106;SDS011;4589;48.690;8.952;2023-08-30T08:36:17;9.10;;;8.30;;
9106;SDS011;4589;48.690;8.952;2023-08-30T08:38:43;9.10;;;8.20;;
9106;SDS011;4589;48.690;8.952;2023-08-30T08:41:10;8.57;;;7.63;;
9106;SDS011;4589;48.690;8.952;2023-08-30T08:43:40;7.60;;;6.90;;
9106;SDS011;4589;48.690;8.952;2023-08-30T08:46:07;7.07;;;6.43;;
9106;SDS011;4589;48.690;8.952;2023-08-30T08:48:38;6.77;;;6.17;;
9106;SDS011;4589;48.690;8.952;2023-08-30T08:51:06;7.23;;;6.13;;
9106;SDS011;4589;48.690;8.952;2023-08-30T08:53:32;6.83;;;6.13;;
9106;SDS011;4589;48.690;8.952;2023-08-30T08:55:58;5.70;;;5.27;;
9106;SDS011;4589;48.690;8.952;2023-08-30T08:58:25;6.70;;;6.10;;
9106;SDS011;4589;48.690;8.952;2023-08-30T09:00:51;6.13;;;5.53;;
9106;SDS011;4589;48.690;8.952;2023-08-30T09:03:17;5.80;;;5.07;;
9106;SDS011;4589;48.690;8.952;2023-08-30T09:05:44;6.40;;;5.90;;
9106;SDS011;4589;48.690;8.952;2023-08-30T09:08:11;6.83;;;5.60;;
9106;SDS011;4589;48.690;8.952;2023-08-30T09:10:40;5.87;;;5.33;;
9106;SDS011;4589;48.690;8.952;2023-08-30T09:13:06;5.87;;;5.37;;
9106;SDS011;4589;48.690;8.952;2023-08-30T09:15:32;6.07;;;5.57;;
9106;SDS011;4589;48.690;8.952;2023-08-30T09:17:58;6.07;;;5.57;;
9106;SDS011;4589;48.690;8.952;2023-08-30T09:20:24;5.90;;;5.00;;
9106;SDS011;4589;48.690;8.952;2023-08-30T09:22:49;8.70;;;4.87;;
9106;SDS011;4589;48.690;8.952;2023-08-30T09:25:27;5.10;;;4.67;;
9106;SDS011;4589;48.690;8.952;2023-08-30T09:27:57;6.53;;;5.20;;
9106;SDS011;4589;48.690;8.952;2023-08-30T09:30:26;4.87;;;4.50;;
9106;SDS011;4589;48.690;8.952;2023-08-30T09:32:52;6.47;;;5.30;;
9106;SDS011;4589;48.690;8.952;2023-08-30T09:35:18;6.13;;;5.63;;
9106;SDS011;4589;48.690;8.952;2023-08-30T09:37:44;7.90;;;5.10;;
9106;SDS011;4589;48.690;8.952;2023-08-30T09:40:10;7.20;;;5.00;;
9106;SDS011;4589;48.690;8.952;2023-08-30T09:42:42;5.13;;;4.73;;
9106;SDS011;4589;48.690;8.952;2023-08-30T09:45:23;7.67;;;5.57;;
9106;SDS011;4589;48.690;8.952;2023-08-30T09:47:49;5.20;;;4.70;;
9106;SDS011;4589;48.690;8.952;2023-08-30T09:50:19;4.97;;;4.57;;
9106;SDS011;4589;48.690;8.952;2023-08-30T09:52:49;4.90;;;4.50;;
9106;SDS011;4589;48.690;8.952;2023-08-30T09:55:16;5.13;;;4.60;;
9106;SDS011;4589;48.690;8.952;2023-08-30T09:57:43;3.97;;;3.67;;
9106;SDS011;4589;48.690;8.952;2023-08-30T10:00:09;6.63;;;4.87;;
9106;SDS011;4589;48.690;8.952;2023-08-30T10:02:37;4.70;;;4.40;;
9106;SDS011;4589;48.690;8.952;2023-08-30T10:05:07;6.10;;;4.60;;
9106;SDS011;4589;48.690;8.952;2023-08-30T10:07:34;5.30;;;4.90;;
9106;SDS011;4589;48.690;8.952;2023-08-30T10:10:02;5.07;;;4.67;;
9106;SDS011;4589;48.690;8.952;2023-08-30T10:12:29;5.20;;;4.70;;
9106;SDS011;4589;48.690;8.952;2023-08-30T10:14:57;4.87;;;4.03;;
9106;SDS011;4589;48.690;8.952;2023-08-30T10:17:23;4.37;;;4.07;;
9106;SDS011;4589;48.690;8.952;2023-08-30T10:19:53;5.17;;;4.67;;
9106;SDS011;4589;48.690;8.952;2023-08-30T10:22:20;4.90;;;4.50;;
9106;SDS011;4589;48.690;8.952;2023-08-30T10:24:47;4.07;;;3.77;;
9106;SDS011;4589;48.690;8.952;2023-08-30T10:27:16;4.03;;;3.60;;
9106;SDS011;4589;48.690;8.952;2023-08-30T10:29:43;5.10;;;4.70;;
9106;SDS011;4589;48.690;8.952;2023-08-30T10:32:10;7.40;;;4.37;;
9106;SDS011;4589;48.690;8.952;2023-08-30T10:34:36;4.10;;;3.80;;
9106;SDS011;4589;48.690;8.952;2023-08-30T10:37:03;3.93;;;3.27;;
9106;SDS011;4589;48.690;8.952;2023-08-30T10:39:36;3.53;;;3.13;;
9106;SDS011;4589;48.690;8.952;2023-08-30T10:42:15;4.20;;;3.80;;
9106;SDS011;4589;48.690;8.952;2023-08-30T10:44:48;8.37;;;3.30;;
9106;SDS011;4589;48.690;8.952;2023-08-30T10:49:53;4.13;;;3.73;;
9106;SDS011;4589;48.690;8.952;2023-08-30T10:52:19;3.70;;;3.40;;
9106;SDS011;4589;48.690;8.952;2023-08-30T10:54:45;3.80;;;3.10;;
9106;SDS011;4589;48.690;8.952;2023-08-30T10:57:14;3.73;;;3.43;;
9106;SDS011;4589;48.690;8.952;2023-08-30T11:02:34;4.93;;;3.73;;
9106;SDS011;4589;48.690;8.952;2023-08-30T11:05:02;3.27;;;2.97;;
9106;SDS011;4589;48.690;8.952;2023-08-30T11:07:30;3.70;;;3.30;;
9106;SDS011;4589;48.690;8.952;2023-08-30T11:09:57;3.70;;;3.40;;
9106;SDS011;4589;48.690;8.952;2023-08-30T11:12:23;3.40;;;3.07;;
9106;SDS011;4589;48.690;8.952;2023-08-30T11:14:51;3.80;;;3.50;;
9106;SDS011;4589;48.690;8.952;2023-08-30T11:17:17;4.17;;;3.20;;
9106;SDS011;4589;48.690;8.952;2023-08-30T11:19:43;3.63;;;3.30;;
9106;SDS011;4589;48.690;8.952;2023-08-30T11:22:09;4.50;;;3.70;;
9106;SDS011;4589;48.690;8.952;2023-08-30T11:24:37;2.33;;;2.13;;
9106;SDS011;4589;48.690;8.952;2023-08-30T11:27:03;5.70;;;3.37;;
9106;SDS011;4589;48.690;8.952;2023-08-30T11:29:29;1.00;;;0.60;;
9106;SDS011;4589;48.690;8.952;2023-08-30T11:31:55;1.00;;;0.60;;
9106;SDS011;4589;48.690;8.952;2023-08-30T11:34:21;1.00;;;0.60;;
9106;SDS011;4589;48.690;8.952;2023-08-30T11:36:47;0.90;;;0.60;;
9106;SDS011;4589;48.690;8.952;2023-08-30T11:39:14;0.90;;;0.60;;
9106;SDS011;4589;48.690;8.952;2023-08-30T11:41:41;0.90;;;0.70;;
9106;SDS011;4589;48.690;8.952;2023-08-30T11:44:08;0.90;;;0.60;;
9106;SDS011;4589;48.690;8.952;2023-08-30T11:46:34;0.90;;;0.70;;
9106;SDS011;4589;48.690;8.952;2023-08-30T11:49:00;0.90;;;0.60;;
9106;SDS011;4589;48.690;8.952;2023-08-30T11:51:27;0.90;;;0.70;;
9106;SDS011;4589;48.690;8.952;2023-08-30T11:53:54;0.90;;;0.60;;
9106;SDS011;4589;48.690;8.952;2023-08-30T11:56:20;0.90;;;0.70;;
9106;SDS011;4589;48.690;8.952;2023-08-30T11:58:47;0.90;;;0.60;;
9106;SDS011;4589;48.690;8.952;2023-08-30T12:01:13;0.90;;;0.60;;
9106;SDS011;4589;48.690;8.952;2023-08-30T12:03:39;0.90;;;0.70;;
9106;SDS011;4589;48.690;8.952;2023-08-30T12:06:09;1.03;;;0.93;;
9106;SDS011;4589;48.690;8.952;2023-08-30T12:08:36;0.90;;;0.60;;
9106;SDS011;4589;48.690;8.952;2023-08-30T12:11:01;0.90;;;0.70;;
9106;SDS011;4589;48.690;8.952;2023-08-30T12:13:28;0.90;;;0.60;;
9106;SDS011;4589;48.690;8.952;2023-08-30T12:15:55;0.90;;;0.60;;
9106;SDS011;4589;48.690;8.952;2023-08-30T12:18:23;0.90;;;0.70;;
9106;SDS011;4589;48.690;8.952;2023-08-30T12:20:53;0.90;;;0.60;;
9106;SDS011;4589;48.690;8.952;2023-08-30T12:23:26;0.90;;;0.60;;
9106;SDS011;4589;48.690;8.952;2023-08-30T12:26:12;2.13;;;2.00;;
9106;SDS011;4589;48.690;8.952;2023-08-30T12:28:38;0.90;;;0.60;;
9106;SDS011;4589;48.690;8.952;2023-08-30T12:31:05;0.90;;;0.60;;
9106;SDS011;4589;48.690;8.952;2023-08-30T12:33:32;0.90;;;0.60;;
9106;SDS011;4589;48.690;8.952;2023-08-30T12:35:59;0.90;;;0.60;;
9106;SDS011;4589;48.690;8.952;2023-08-30T12:38:25;0.90;;;0.60;;
9106;SDS011;4589;48.690;8.952;2023-08-30T12:40:53;0.90;;;0.60;;
9106;SDS011;4589;48.690;8.952;2023-08-30T12:43:19;0.90;;;0.60;;
9106;SDS011;4589;48.690;8.952;2023-08-30T12:45:45;0.90;;;0.60;;
9106;SDS011;4589;48.690;8.952;2023-08-30T12:48:13;0.90;;;0.80;;
9106;SDS011;4589;48.690;8.952;2023-08-30T12:50:40;0.90;;;0.60;;
9106;SDS011;4589;48.690;8.952;2023-08-30T12:53:06;0.90;;;0.60;;
9106;SDS011;4589;48.690;8.952;2023-08-30T12:55:33;0.90;;;0.60;;
9106;SDS011;4589;48.690;8.952;2023-08-30T12:58:05;1.97;;;1.87;;
9106;SDS011;4589;48.690;8.952;2023-08-30T13:00:31;0.90;;;0.60;;
9106;SDS011;4589;48.690;8.952;2023-08-30T13:02:58;0.90;;;0.60;;
9106;SDS011;4589;48.690;8.952;2023-08-30T13:05:24;0.90;;;0.60;;
9106;SDS011;4589;48.690;8.952;2023-08-30T13:07:50;0.90;;;0.60;;
9106;SDS011;4589;48.690;8.952;2023-08-30T13:10:16;0.90;;;0.60;;
9106;SDS011;4589;48.690;8.952;2023-08-30T13:12:42;0.90;;;0.60;;
9106;SDS011;4589;48.690;8.952;2023-08-30T13:15:07;4.20;;;3.80;;
9106;SDS011;4589;48.690;8.952;2023-08-30T13:17:33;7.60;;;3.73;;
9106;SDS011;4589;48.690;8.952;2023-08-30T13:20:00;3.03;;;2.83;;
9106;SDS011;4589;48.690;8.952;2023-08-30T13:22:26;3.93;;;3.63;;
9106;SDS011;4589;48.690;8.952;2023-08-30T13:24:52;3.70;;;3.40;;
9106;SDS011;4589;48.690;8.952;2023-08-30T13:27:18;3.90;;;3.40;;
9106;SDS011;4589;48.690;8.952;2023-08-30T13:29:45;3.40;;;3.10;;
9106;SDS011;4589;48.690;8.952;2023-08-30T13:32:11;3.67;;;3.37;;
9106;SDS011;4589;48.690;8.952;2023-08-30T13:34:37;5.13;;;3.37;;
9106;SDS011;4589;48.690;8.952;2023-08-30T13:37:03;3.63;;;3.33;;
9106;SDS011;4589;48.690;8.952;2023-08-30T13:39:29;3.40;;;3.10;;
9106;SDS011;4589;48.690;8.952;2023-08-30T13:41:55;3.00;;;2.77;;
9106;SDS011;4589;48.690;8.952;2023-08-30T13:44:21;3.33;;;3.03;;
9106;SDS011;4589;48.690;8.952;2023-08-30T13:46:47;3.00;;;2.80;;
9106;SDS011;4589;48.690;8.952;2023-08-30T13:49:14;2.90;;;2.70;;
9106;SDS011;4589;48.690;8.952;2023-08-30T13:51:40;3.00;;;2.77;;
9106;SDS011;4589;48.690;8.952;2023-08-30T13:54:06;3.57;;;3.27;;
9106;SDS011;4589;48.690;8.952;2023-08-30T13:56:31;3.47;;;3.00;;
9106;SDS011;4589;48.690;8.952;2023-08-30T13:58:57;3.10;;;2.90;;
9106;SDS011;4589;48.690;8.952;2023-08-30T14:01:23;3.40;;;3.10;;
9106;SDS011;4589;48.690;8.952;2023-08-30T14:03:49;5.87;;;3.63;;
9106;SDS011;4589;48.690;8.952;2023-08-30T14:06:15;4.87;;;3.57;;
9106;SDS011;4589;48.690;8.952;2023-08-30T14:08:42;3.70;;;3.40;;
9106;SDS011;4589;48.690;8.952;2023-08-30T14:11:08;3.70;;;3.50;;
9106;SDS011;4589;48.690;8.952;2023-08-30T14:13:34;3.60;;;3.30;;
9106;SDS011;4589;48.690;8.952;2023-08-30T14:16:00;3.80;;;3.50;;
9106;SDS011;4589;48.690;8.952;2023-08-30T14:18:27;4.20;;;3.80;;
9106;SDS011;4589;48.690;8.952;2023-08-30T14:20:56;4.40;;;4.10;;
9106;SDS011;4589;48.690;8.952;2023-08-30T14:23:23;7.20;;;4.53;;
9106;SDS011;4589;48.690;8.952;2023-08-30T14:26:00;4.60;;;4.20;;
9106;SDS011;4589;48.690;8.952;2023-08-30T14:28:37;4.50;;;4.17;;
9106;SDS011;4589;48.690;8.952;2023-08-30T14:31:03;5.80;;;4.47;;
9106;SDS011;4589;48.690;8.952;2023-08-30T14:33:32;6.20;;;4.30;;
9106;SDS011;4589;48.690;8.952;2023-08-30T14:35:58;6.90;;;4.50;;
9106;SDS011;4589;48.690;8.952;2023-08-30T14:38:24;10.43;;;4.20;;
9106;SDS011;4589;48.690;8.952;2023-08-30T14:43:22;6.03;;;3.60;;
9106;SDS011;4589;48.690;8.952;2023-08-30T14:45:48;4.80;;;4.40;;
9106;SDS011;4589;48.690;8.952;2023-08-30T14:48:14;4.53;;;4.10;;
9106;SDS011;4589;48.690;8.952;2023-08-30T14:50:39;5.03;;;4.63;;
9106;SDS011;4589;48.690;8.952;2023-08-30T14:53:05;4.07;;;3.77;;
9106;SDS011;4589;48.690;8.952;2023-08-30T14:55:32;4.63;;;4.33;;
9106;SDS011;4589;48.690;8.952;2023-08-30T14:57:58;5.70;;;4.17;;
9106;SDS011;4589;48.690;8.952;2023-08-30T15:00:24;4.83;;;4.43;;
9106;SDS011;4589;48.690;8.952;2023-08-30T15:02:49;6.10;;;4.73;;
9106;SDS011;4589;48.690;8.952;2023-08-30T15:05:15;6.63;;;3.93;;
9106;SDS011;4589;48.690;8.952;2023-08-30T15:07:41;4.90;;;4.40;;
9106;SDS011;4589;48.690;8.952;2023-08-30T15:10:06;5.40;;;4.37;;
9106;SDS011;4589;48.690;8.952;2023-08-30T15:12:32;4.60;;;4.20;;
9106;SDS011;4589;48.690;8.952;2023-08-30T15:14:58;4.10;;;3.80;;